Imotski, Croatia

11:55 PM CEST on October 22, 2014 (GMT +0200)
Kostanje-Poljica | Change Station
CLOSE
Current Station
Personal Weather Station
Location: Kostanje, SPLITSKO-DALMATINSKA žUPANIJA
Elevation: 728 ft
Nearby Weather Stations

Elev 728 ft 43.44 °N, 16.83 °E | Updated 2 seconds ago

Partly Cloudy
Partly Cloudy
49.3 °F
Feels Like 49 °F
N
2.3
Wind Variable Wind from North
Gusts 2.6 mph

Today
High -- | Low -- °F
--% Chance of Precip.
Yesterday
High -- | Low -- °F
Precip. -- in
7:13 AM 5:57 PM
Waning Crescent, 1% visible
Pressure 29.65 in
Visibility 6.2 miles
Clouds Few 4000 ft
Windchill 49 °F
Dew Point 36 °F
Humidity 60%
Rainfall 0.02 in
Snow Depth Not available.
UV 0 out of 12
Pollen Not available.
Air Quality Not available.
Flu Activity Not available.
METAR LQMO 222200Z 31010KT 190V350 9999 FEW040 12/00 Q1004

More Conditions Fewer Conditions

Pressure 29.65 in
Visibility 6.2 miles
Clouds Few 4000 ft
Windchill 49 °F
Dew Point 36 °F
Humidity 60%
Rainfall 0.02 in
Snow Depth Not available.
UV 0 out of 12
Pollen Not available.
Air Quality Not available.
Flu Activity Not available.
METAR LQMO 222200Z 31010KT 190V350 9999 FEW040 12/00 Q1004

More Conditions Fewer Conditions

10-Day Weather Forecast

Almanac

Astronomy

Oct. 22, 2014 Rise Set
Actual Time 7:13 AM CEST 5:57 PM CEST
Civil Twilight 6:44 AM CEST 6:26 PM CEST
Nautical Twilight 6:10 AM CEST 6:59 PM CEST
Astronomical Twilight 5:37 AM CEST 7:32 PM CEST
Moon 5:35 AM CEST 5:15 PM CEST
Length of Visible Light 11h 42m
Length of Day
10h 43m
Tomorrow will be 2m 47s shorter.
Waning Crescent, 1% of the Moon is Illuminated
Today
Waning Crescent
Oct 23
New
Oct 30
First Quarter
Nov 6
Full
Nov 14
Last Quarter

Today's Extremes

Country Highs Country Lows

Community

WunderPhotos

Upload Photos

1,764,047 photos uploaded!

WunderBlogs® & News

Nearby

Snow Depth

Not available.

Earthquake Activity

City Distance Mag. Time & Date
No recent earthquake activity has been reported nearby.
Minimum magnitude displayed is 2.5.

Coastal Water Temperatures

Place Temperature
No Stations Reporting

Nearby Weather Stations